Latest Weather Observations for Dennes Point

IDT60801

Issued at 4:02 pm EST Tuesday 26 July 2016 (issued every 30 minutes, with the page automatically refreshed every 10 minutes)

About weather observations | Map of weather stations | Latest weather observations for TAS | Other Formats
Station Details ID: 094255 Name: DENNES POINT Lat: -43.06 Lon: 147.36 Height: 5.67 m
Data from the previous 72 hours. | See also: Recent months at Dennes Point
Date/Time
EST
Temp
°C
App
Temp
°C
Dew
Point
°C
Rel
Hum
%
Delta-T
°C
Wind Press
QNH
hPa
Press
MSL
hPa
Rain since
9am
mm
Dir  Spd
km/h
Gust
km/h
Spd
kts
Gust
kts
26/04:00pm 8.1 4.1 2.8 69 2.2 WNW 13 19 7 10 999.0 999.1 0.2
26/03:30pm 8.6 2.4 2.2 64 2.7 WNW 24 37 13 20 998.6 998.7 0.2
26/03:00pm 8.9 4.5 2.7 65 2.6 W 15 24 8 13 998.2 998.3 0.2
26/02:30pm 8.5 5.7 2.3 65 2.6 WSW 6 13 3 7 998.2 998.3 0.2
26/02:00pm 8.5 5.5 2.3 65 2.6 SE 7 17 4 9 998.0 998.1 0.2
26/01:30pm 8.0 5.1 2.5 68 2.3 W 7 13 4 7 997.7 997.8 0.2
26/01:00pm 8.0 2.9 3.1 71 2.1 W 19 35 10 19 997.6 997.7 0.2
26/12:51pm 8.1 0.9 3.2 71 2.1 W 30 48 16 26 997.5 997.6 0.2
26/12:30pm 8.7 1.0 3.3 69 2.3 W 33 46 18 25 997.3 997.4 0.2
26/12:00pm 8.3 -0.6 3.2 70 2.2 W 39 56 21 30 996.9 997.0 0.2
26/11:35am 8.4 -0.1 3.1 69 2.3 W 37 57 20 31 996.9 997.0 0.2
26/11:30am 8.3 -1.4 2.8 68 2.3 W 43 57 23 31 997.0 997.1 0.2
26/11:02am 8.5 0.6 2.5 66 2.5 W 33 52 18 28 997.2 997.3 0.2
26/11:00am 8.6 0.8 2.6 66 2.5 W 33 46 18 25 997.2 997.3 0.2
26/10:30am 7.8 -0.4 2.9 71 2.1 W 35 46 19 25 996.9 997.0 0.2
26/10:00am 6.5 -1.2 2.4 75 1.7 WNW 32 41 17 22 997.1 997.2 0.2
26/09:30am 6.3 -1.5 2.6 77 1.5 WNW 33 44 18 24 997.0 997.1 0.2
26/09:00am 6.0 0.6 2.3 77 1.5 NW 20 28 11 15 996.4 996.5 5.2
26/08:30am 5.1 -0.9 1.2 76 1.5 WNW 22 33 12 18 996.4 996.5 5.0
26/08:00am 5.9 -0.8 1.6 74 1.7 W 26 44 14 24 995.8 995.9 4.8
26/07:30am 6.1 -2.0 1.2 71 1.9 WNW 33 44 18 24 995.0 995.1 4.8
26/07:00am 5.4 -0.2 1.5 76 1.6 WNW 20 37 11 20 994.1 994.1 4.8
26/06:31am 5.2 -1.8 1.7 78 1.4 WNW 28 48 15 26 993.4 993.4 4.6
26/06:30am 5.2 -1.5 1.7 78 1.4 WNW 26 43 14 23 993.2 993.2 4.6
26/06:00am 5.2 -1.8 2.0 80 1.3 NW 28 39 15 21 993.4 993.4 4.2
26/05:40am 5.7 -1.2 2.5 80 1.3 W 28 46 15 25 993.4 993.4 3.8
26/05:30am 5.2 -2.2 2.0 80 1.3 W 30 56 16 30 992.6 992.6 3.6
26/05:15am 5.8 -2.9 2.1 77 1.5 WNW 37 74 20 40 992.5 992.5 3.4
26/05:13am 5.7 -1.7 2.0 77 1.5 WNW 30 56 16 30 992.5 992.5 3.4
26/05:00am 5.7 -0.1 2.5 80 1.3 NW 22 33 12 18 991.4 991.4 3.4
26/04:30am 6.0 -1.3 2.3 77 1.5 W 30 41 16 22 991.9 991.9 3.0
26/04:00am 6.2 0.8 2.3 76 1.6 NW 20 30 11 16 991.1 991.1 2.8
26/03:30am 5.8 -1.2 2.1 77 1.5 NW 28 39 15 21 990.5 990.5 2.6
26/03:00am 5.8 0.0 2.1 77 1.5 NW 22 35 12 19 990.0 990.0 2.4
26/02:35am 5.6 -3.1 1.9 77 1.5 NW 37 57 20 31 990.1 990.1 2.2
26/02:30am 5.8 -4.6 2.3 78 1.4 WNW 46 72 25 39 989.9 989.9 2.0
26/02:27am 5.8 -5.3 2.3 78 1.4 WNW 50 72 27 39 989.8 989.8 2.0
26/02:08am 5.8 -6.2 1.7 75 1.6 W 54 80 29 43 989.7 989.7 1.6
26/02:06am 5.8 -5.8 1.7 75 1.6 WNW 52 72 28 39 989.7 989.7 1.6
26/02:00am 6.0 -3.1 1.9 75 1.7 WNW 39 61 21 33 989.3 989.3 1.4
26/01:57am 6.1 -2.2 2.2 76 1.6 WNW 35 61 19 33 989.2 989.2 1.4
26/01:30am 6.2 -2.0 2.5 77 1.5 WNW 35 48 19 26 989.3 989.3 1.2
26/01:04am 5.4 -5.4 1.7 77 1.5 WNW 48 69 26 37 988.6 988.6 1.0
26/01:00am 5.6 -6.3 1.9 77 1.5 W 54 69 29 37 989.1 989.1 0.4
26/12:49am 6.1 -3.7 2.2 76 1.6 W 43 69 23 37 988.8 988.8 0.0
26/12:45am 6.0 -1.4 2.1 76 1.6 W 30 61 16 33 989.0 989.0 0.0
26/12:30am 6.2 0.7 1.9 74 1.7 WNW 20 28 11 15 988.5 988.5 0.0
26/12:00am 6.4 2.2 1.9 73 1.8 NW 13 32 7 17 988.1 988.1 0.0
 
Date/Time
EST
Temp
°C
App
Temp
°C
Dew
Point
°C
Rel
Hum
%
Delta-T
°C
Wind Press
QNH
hPa
Press
MSL
hPa
Rain since
9am
mm
Dir  Spd
km/h
Gust
km/h
Spd
kts
Gust
kts
25/11:30pm 6.8 1.5 1.7 70 2.1 NW 19 32 10 17 988.5 988.5 0.0
25/11:00pm 7.8 1.2 2.1 67 2.4 WNW 26 35 14 19 988.3 988.3 0.0
25/10:30pm 7.9 2.4 2.0 66 2.4 W 20 32 11 17 986.9 986.9 0.0
25/10:00pm 8.6 2.5 2.8 67 2.5 W 24 32 13 17 987.1 987.1 0.0
25/09:30pm 9.4 3.1 3.8 68 2.4 WNW 26 39 14 21 986.4 986.4 0.0
25/09:00pm 9.9 3.4 4.9 71 2.3 N 28 41 15 22 985.5 985.5 0.0
25/08:30pm 9.7 4.0 4.9 72 2.2 NNE 24 37 13 20 985.7 985.7 0.0
25/08:00pm 10.0 5.7 5.4 73 2.1 NE 17 22 9 12 986.6 986.6 0.0
25/07:30pm 10.0 4.8 5.6 74 2.0 NNE 22 28 12 15 987.3 987.3 0.0
25/07:00pm 10.2 2.2 5.8 74 2.1 NNE 37 44 20 24 987.7 987.7 0.0
25/06:50pm 10.3 4.4 5.9 74 2.0 NNE 26 41 14 22 988.1 988.1 0.0
25/06:30pm 10.0 5.3 5.0 71 2.3 NE 19 22 10 12 988.9 988.9 0.0
25/06:00pm 10.3 5.4 5.1 70 2.4 NE 20 24 11 13 989.6 989.6 0.0
25/05:30pm 10.6 5.4 5.6 71 2.3 NNE 22 26 12 14 990.4 990.4 0.0
25/05:00pm 11.0 7.0 5.1 67 2.7 N 15 19 8 10 991.2 991.2 0.0
25/04:30pm 10.9 7.5 5.7 70 2.4 NNE 13 19 7 10 991.8 991.8 0.0
25/04:00pm 11.5 8.9 6.2 70 2.5 N 9 13 5 7 992.6 992.6 0.0
25/03:30pm 11.9 8.3 4.9 62 3.2 NW 13 17 7 9 993.1 993.1 0.0
25/03:00pm 11.8 10.0 5.2 64 3.1 NNE 4 9 2 5 993.8 993.8 0.0
25/02:30pm 12.5 9.7 5.2 61 3.4 WNW 9 15 5 8 994.0 994.0 0.0
25/02:00pm 11.7 8.6 5.6 66 2.9 W 11 17 6 9 994.5 994.6 0.0
25/01:30pm 11.4 8.3 5.5 67 2.7 W 11 20 6 11 995.0 995.1 0.0
25/01:00pm 10.6 7.3 6.2 74 2.1 NNW 13 15 7 8 995.5 995.6 0.0
25/12:30pm 10.1 7.1 6.1 76 1.9 N 11 15 6 8 996.1 996.2 0.0
25/12:00pm 9.4 5.6 5.6 77 1.7 NNW 15 20 8 11 996.7 996.8 0.0
25/11:30am 9.3 5.4 5.5 77 1.7 N 15 19 8 10 997.2 997.3 0.0
25/11:00am 9.3 5.1 5.7 78 1.7 N 17 20 9 11 997.6 997.7 0.0
25/10:30am 8.7 4.0 5.3 79 1.5 NNE 19 22 10 12 997.8 997.9 0.0
25/10:00am 7.7 2.3 4.7 81 1.3 N 22 24 12 13 997.7 997.8 0.0
25/09:30am 7.9 3.5 4.8 81 1.4 N 17 20 9 11 998.1 998.2 0.0
25/09:00am 7.8 2.9 5.1 83 1.2 N 20 24 11 13 998.0 998.1 0.0
25/08:30am 7.6 4.4 4.9 83 1.2 N 11 15 6 8 998.2 998.3 0.0
25/08:00am 6.6 2.8 3.9 83 1.2 NNE 13 19 7 10 998.3 998.4 0.0
25/07:30am 7.3 2.5 4.6 83 1.2 NNE 19 22 10 12 998.1 998.2 0.0
25/07:00am 6.7 5.0 4.0 83 1.2 NW 2 4 1 2 998.1 998.2 0.0
25/06:30am 7.5 3.5 5.0 84 1.1 NNE 15 19 8 10 998.4 998.5 0.0
25/06:00am 6.4 5.0 3.7 83 1.2 CALM 0 6 0 3 998.4 998.5 0.0
25/05:30am 6.5 4.0 3.8 83 1.1 N 6 9 3 5 998.5 998.6 0.0
25/05:00am 6.5 3.8 3.7 82 1.2 NNE 7 9 4 5 998.6 998.7 0.0
25/04:30am 6.6 4.2 4.1 84 1.1 SW 6 13 3 7 998.6 998.7 0.0
25/04:00am 7.0 4.1 4.5 84 1.1 NNE 9 13 5 7 998.4 998.5 0.0
25/03:30am 5.4 2.7 2.8 83 1.1 SW 6 7 3 4 998.8 998.9 0.0
25/03:00am 6.7 3.7 3.9 82 1.2 N 9 13 5 7 998.9 999.0 0.0
25/02:30am 6.3 4.1 3.6 83 1.1 NE 4 6 2 3 999.3 999.4 0.0
25/02:00am 6.2 3.6 3.4 82 1.2 NE 6 7 3 4 999.3 999.4 0.0
25/01:30am 6.1 3.3 3.3 82 1.2 N 7 9 4 5 999.6 999.7 0.0
25/01:00am 6.3 3.2 3.5 82 1.2 NNE 9 11 5 6 999.8 999.9 0.0
25/12:30am 6.0 3.8 3.2 82 1.2 N 4 6 2 3 999.9 1000.0 0.0
25/12:00am 5.4 3.8 2.6 82 1.1 CALM 0 2 0 1 1000.3 1000.4 0.0
 
Date/Time
EST
Temp
°C
App
Temp
°C
Dew
Point
°C
Rel
Hum
%
Delta-T
°C
Wind Press
QNH
hPa
Press
MSL
hPa
Rain since
9am
mm
Dir  Spd
km/h
Gust
km/h
Spd
kts
Gust
kts
24/11:30pm 6.6 2.8 3.8 82 1.2 NNE 13 17 7 9 1000.4 1000.5 0.0
24/11:00pm 6.5 4.0 3.5 81 1.3 N 6 9 3 5 1000.7 1000.8 0.0
24/10:30pm 6.4 3.7 3.7 83 1.1 NNE 7 13 4 7 1000.9 1001.0 0.0
24/10:00pm 4.3 1.8 1.8 84 1.0 SW 4 7 2 4 1001.1 1001.2 0.0
24/09:30pm 4.3 1.8 1.8 84 1.0 SSW 4 9 2 5 1001.3 1001.4 0.0
24/09:00pm 4.4 0.6 1.8 83 1.0 SSW 11 11 6 6 1001.6 1001.7 0.0
24/08:30pm 5.0 1.6 2.0 81 1.2 SSW 9 13 5 7 1001.7 1001.8 0.0
24/08:00pm 4.9 1.2 2.1 82 1.1 S 11 13 6 7 1001.9 1002.0 0.0
24/07:30pm 5.2 1.1 2.0 80 1.3 SSW 13 17 7 9 1002.1 1002.1 0.0
24/07:00pm 6.1 3.2 2.6 78 1.4 SSW 7 9 4 5 1002.3 1002.3 0.0
24/06:30pm 5.9 3.1 2.0 76 1.6 S 6 9 3 5 1002.4 1002.4 0.0
24/06:00pm 6.4 3.3 1.5 71 2.0 SW 7 9 4 5 1002.3 1002.3 0.0
24/05:30pm 8.6 5.8 3.2 69 2.3 NNE 7 7 4 4 1002.3 1002.3 0.0
24/05:00pm 8.6 5.9 2.8 67 2.5 N 6 9 3 5 1002.2 1002.2 0.0
24/04:30pm 8.9 6.1 1.8 61 2.9 NW 6 7 3 4 1002.3 1002.3 0.0
24/04:00pm 9.3 6.8 1.7 59 3.2 NNW 4 9 2 5 1002.5 1002.5 0.0
24/03:30pm 9.3 6.0 2.6 63 2.8 N 9 15 5 8 1002.6 1002.6 0.0
24/03:00pm 9.2 5.5 2.5 63 2.8 WNW 11 17 6 9 1002.6 1002.6 0.0
24/02:30pm 9.6 6.0 2.9 63 2.9 W 11 17 6 9 1002.6 1002.6 0.0
24/02:00pm 8.8 5.9 2.4 64 2.7 N 7 11 4 6 1002.7 1002.7 0.0
24/01:30pm 8.9 5.6 2.7 65 2.6 NNE 9 11 5 6 1003.0 1003.0 0.0
24/01:00pm 8.5 4.9 2.7 67 2.5 N 11 15 6 8 1003.5 1003.5 0.0
24/12:30pm 8.7 5.1 2.9 67 2.5 NNE 11 13 6 7 1003.9 1003.9 0.0
24/12:00pm 8.2 5.4 2.9 69 2.2 N 7 13 4 7 1004.2 1004.2 0.0
24/11:30am 8.3 4.7 3.0 69 2.2 NNW 11 17 6 9 1004.5 1004.5 0.0
24/11:00am 7.6 3.9 2.5 70 2.1 N 11 13 6 7 1004.6 1004.6 0.0
24/10:30am 7.7 5.0 2.8 71 2.1 NNW 6 9 3 5 1004.7 1004.7 0.0
24/10:00am 7.0 3.4 2.7 74 1.8 NNW 11 15 6 8 1004.8 1004.8 0.0
24/09:30am 7.1 3.5 3.0 75 1.7 NNW 11 15 6 8 1004.9 1004.9 0.0
24/09:00am 5.2 1.8 1.9 79 1.3 SW 9 11 5 6 1004.7 1004.7 4.8
24/08:30am 4.2 1.5 0.5 77 1.4 SW 4 6 2 3 1004.9 1004.9 4.8
24/08:00am 3.7 0.4 0.1 77 1.4 SSW 7 11 4 6 1004.8 1004.8 4.8
24/07:30am 5.5 2.0 1.1 73 1.7 NNW 9 11 5 6 1004.6 1004.6 4.8
24/07:00am 5.8 2.3 1.0 71 1.9 NNW 9 13 5 7 1004.5 1004.5 4.8
24/06:30am 5.9 2.0 0.9 70 2.0 NNW 11 17 6 9 1003.9 1003.9 4.8
24/06:00am 5.6 1.7 1.0 72 1.8 NW 11 19 6 10 1003.8 1003.8 4.8
24/05:30am 5.7 1.8 1.1 72 1.8 NW 11 15 6 8 1003.8 1003.8 4.8
24/05:00am 5.7 2.5 0.7 70 2.0 NNW 7 11 4 6 1003.7 1003.7 4.8
24/04:30am 5.7 1.7 0.7 70 1.9 NNW 11 19 6 10 1003.9 1003.9 4.8
24/04:00am 5.5 0.1 1.1 73 1.7 WNW 19 24 10 13 1003.4 1003.4 4.8
24/03:30am 5.3 -0.2 0.7 72 1.8 WNW 19 22 10 12 1003.5 1003.5 4.8
24/03:00am 5.5 1.8 -0.1 67 2.1 NW 9 17 5 9 1003.6 1003.6 4.8
24/02:30am 5.7 0.9 0.5 69 2.0 WNW 15 22 8 12 1003.5 1003.5 4.8
24/02:00am 5.6 -2.0 0.4 69 2.0 W 30 33 16 18 1003.3 1003.3 4.8
24/01:30am 5.2 -0.6 0.2 70 1.9 W 20 28 11 15 1003.5 1003.5 4.8
24/01:00am 5.3 -1.1 0.9 73 1.7 W 24 32 13 17 1003.1 1003.1 4.8
24/12:30am 4.7 -2.9 0.7 75 1.5 WSW 30 37 16 20 1003.2 1003.2 4.8
24/12:00am 4.9 -2.7 0.7 74 1.6 W 30 37 16 20 1003.3 1003.3 4.8
 
Date/Time
EST
Temp
°C
App
Temp
°C
Dew
Point
°C
Rel
Hum
%
Delta-T
°C
Wind Press
QNH
hPa
Press
MSL
hPa
Rain since
9am
mm
Dir  Spd
km/h
Gust
km/h
Spd
kts
Gust
kts
23/11:30pm 4.2 -1.5 0.4 76 1.4 WNW 20 28 11 15 1002.9 1002.9 4.8
23/11:00pm 4.6 -2.2 0.7 76 1.5 W 26 32 14 17 1002.7 1002.7 4.8
23/10:30pm 4.5 -2.7 0.6 76 1.5 W 28 37 15 20 1002.2 1002.2 4.8
23/10:00pm 4.2 -2.2 0.7 78 1.4 WSW 24 33 13 18 1001.9 1002.0 4.8
23/09:34pm 5.2 -4.5 0.8 73 1.7 WSW 41 65 22 35 1002.1 1002.1 4.6
23/09:30pm 5.3 -4.9 0.7 72 1.8 WSW 44 57 24 31 1001.6 1001.7 4.6
23/09:06pm 4.7 -4.6 0.5 74 1.6 WSW 39 61 21 33 1000.7 1000.8 4.6
23/09:00pm 4.3 -5.4 0.3 75 1.5 WSW 41 54 22 29 1000.8 1000.9 4.6
23/08:46pm 4.3 -6.4 0.3 75 1.5 WSW 46 67 25 36 1000.5 1000.6 4.6
23/08:30pm 4.7 -6.7 0.8 76 1.5 WSW 50 65 27 35 1000.3 1000.4 4.6
23/08:21pm 5.0 -5.2 0.8 74 1.6 WSW 44 65 24 35 1000.0 1000.1 4.6
23/08:00pm 4.5 -5.3 0.1 73 1.7 WSW 41 54 22 29 999.7 999.8 4.6
23/07:43pm 4.6 -4.8 0.2 73 1.7 WSW 39 57 21 31 999.7 999.8 4.6
23/07:30pm 4.8 -4.2 0.4 73 1.7 W 37 46 20 25 998.7 998.8 4.6
23/07:00pm 4.7 -2.8 1.0 77 1.5 WSW 30 39 16 21 998.5 998.6 4.6
23/06:30pm 3.6 -4.5 1.0 83 1.0 WSW 33 50 18 27 997.9 998.0 4.6
23/06:06pm 3.7 -6.3 0.9 82 1.1 WSW 43 63 23 34 997.2 997.3 4.2
23/06:00pm 3.8 -5.4 1.0 82 1.1 WSW 39 52 21 28 997.1 997.2 4.2
23/05:35pm 3.9 -5.7 1.3 83 1.0 WSW 41 69 22 37 996.6 996.7 3.8
23/05:30pm 4.0 -3.1 1.4 83 1.0 W 28 43 15 23 996.5 996.6 3.8
23/05:11pm 3.8 -3.3 1.4 84 0.9 W 28 41 15 22 995.9 996.0 3.8
23/05:00pm 3.5 -5.7 1.1 84 0.9 W 39 52 21 28 995.5 995.6 3.8
23/04:30pm 4.2 -3.3 1.1 80 1.2 WSW 30 46 16 25 994.9 995.0 3.4

Other Formats:

Comma delimited format used in spreadsheet applications
http://www.bom.gov.au/fwo/IDT60801/IDT60801.94988.axf

JavaScript Object Notation format (JSON) in row-major order
http://www.bom.gov.au/fwo/IDT60801/IDT60801.94988.json